sensor_id;sensor_type;location;lat;lon;timestamp;pressure;altitude;pressure_sealevel;temperature;humidity
62928;BME280;51070;52.236;-0.892;2023-02-10T00:03:30;102764.77;;;2.29;69.44
62928;BME280;51070;52.236;-0.892;2023-02-10T00:05:56;102764.59;;;2.30;69.37
62928;BME280;51070;52.236;-0.892;2023-02-10T00:08:21;102770.55;;;2.32;69.35
62928;BME280;51070;52.236;-0.892;2023-02-10T00:10:46;102771.42;;;2.32;69.77
62928;BME280;51070;52.236;-0.892;2023-02-10T00:13:12;102775.08;;;2.31;69.36
62928;BME280;51070;52.236;-0.892;2023-02-10T00:15:37;102778.50;;;2.30;69.63
62928;BME280;51070;52.236;-0.892;2023-02-10T00:18:02;102777.06;;;2.27;69.60
62928;BME280;51070;52.236;-0.892;2023-02-10T00:20:28;102774.14;;;2.25;69.66
62928;BME280;51070;52.236;-0.892;2023-02-10T00:22:54;102770.20;;;2.23;69.70
62928;BME280;51070;52.236;-0.892;2023-02-10T00:25:19;102766.07;;;2.21;69.93
62928;BME280;51070;52.236;-0.892;2023-02-10T00:27:44;102764.11;;;2.17;69.88
62928;BME280;51070;52.236;-0.892;2023-02-10T00:30:10;102760.94;;;2.14;69.89
62928;BME280;51070;52.236;-0.892;2023-02-10T00:32:36;102765.62;;;2.11;70.04
62928;BME280;51070;52.236;-0.892;2023-02-10T00:35:07;102764.49;;;2.08;70.15
62928;BME280;51070;52.236;-0.892;2023-02-10T00:37:32;102758.86;;;2.05;70.24
62928;BME280;51070;52.236;-0.892;2023-02-10T00:39:58;102751.79;;;2.02;70.35
62928;BME280;51070;52.236;-0.892;2023-02-10T00:42:23;102747.42;;;2.00;70.76
62928;BME280;51070;52.236;-0.892;2023-02-10T00:44:49;102749.86;;;1.97;70.45
62928;BME280;51070;52.236;-0.892;2023-02-10T00:47:14;102749.60;;;1.94;70.57
62928;BME280;51070;52.236;-0.892;2023-02-10T00:49:40;102760.94;;;1.90;70.63
62928;BME280;51070;52.236;-0.892;2023-02-10T00:52:05;102765.97;;;1.87;70.79
62928;BME280;51070;52.236;-0.892;2023-02-10T00:54:31;102765.48;;;1.88;71.08
62928;BME280;51070;52.236;-0.892;2023-02-10T00:56:56;102765.42;;;1.89;71.38
62928;BME280;51070;52.236;-0.892;2023-02-10T00:59:22;102767.02;;;1.89;71.20
62928;BME280;51070;52.236;-0.892;2023-02-10T01:01:47;102759.02;;;1.90;71.40
62928;BME280;51070;52.236;-0.892;2023-02-10T01:04:12;102754.56;;;1.91;71.52
62928;BME280;51070;52.236;-0.892;2023-02-10T01:06:38;102747.06;;;1.91;71.72
62928;BME280;51070;52.236;-0.892;2023-02-10T01:09:03;102746.73;;;1.91;71.71
62928;BME280;51070;52.236;-0.892;2023-02-10T01:11:29;102748.00;;;1.92;71.79
62928;BME280;51070;52.236;-0.892;2023-02-10T01:13:54;102746.00;;;1.91;71.71
62928;BME280;51070;52.236;-0.892;2023-02-10T01:16:20;102742.48;;;1.90;71.73
62928;BME280;51070;52.236;-0.892;2023-02-10T01:18:46;102741.77;;;1.88;71.84
62928;BME280;51070;52.236;-0.892;2023-02-10T01:21:14;102745.66;;;1.86;71.94
62928;BME280;51070;52.236;-0.892;2023-02-10T01:23:40;102750.88;;;1.83;72.25
62928;BME280;51070;52.236;-0.892;2023-02-10T01:26:07;102753.89;;;1.81;72.17
62928;BME280;51070;52.236;-0.892;2023-02-10T01:28:33;102757.05;;;1.78;72.22
62928;BME280;51070;52.236;-0.892;2023-02-10T01:31:04;102756.40;;;1.74;72.05
62928;BME280;51070;52.236;-0.892;2023-02-10T01:33:31;102758.60;;;1.70;72.60
62928;BME280;51070;52.236;-0.892;2023-02-10T01:35:56;102764.67;;;1.66;72.18
62928;BME280;51070;52.236;-0.892;2023-02-10T01:38:21;102764.98;;;1.62;72.34
62928;BME280;51070;52.236;-0.892;2023-02-10T01:40:48;102765.59;;;1.58;72.51
62928;BME280;51070;52.236;-0.892;2023-02-10T01:43:15;102769.43;;;1.54;72.66
62928;BME280;51070;52.236;-0.892;2023-02-10T01:45:41;102768.94;;;1.53;72.81
62928;BME280;51070;52.236;-0.892;2023-02-10T01:48:08;102768.55;;;1.52;72.93
62928;BME280;51070;52.236;-0.892;2023-02-10T01:50:38;102773.85;;;1.54;73.35
62928;BME280;51070;52.236;-0.892;2023-02-10T01:53:05;102771.67;;;1.56;73.45
62928;BME280;51070;52.236;-0.892;2023-02-10T01:55:33;102772.61;;;1.60;73.96
62928;BME280;51070;52.236;-0.892;2023-02-10T01:58:00;102769.30;;;1.64;74.08
62928;BME280;51070;52.236;-0.892;2023-02-10T02:00:26;102773.22;;;1.68;73.88
62928;BME280;51070;52.236;-0.892;2023-02-10T02:02:53;102773.70;;;1.69;73.85
62928;BME280;51070;52.236;-0.892;2023-02-10T02:07:52;102776.41;;;1.71;74.04
62928;BME280;51070;52.236;-0.892;2023-02-10T02:10:18;102777.16;;;1.70;73.94
62928;BME280;51070;52.236;-0.892;2023-02-10T02:12:56;102775.80;;;1.66;74.11
62928;BME280;51070;52.236;-0.892;2023-02-10T02:15:51;102772.46;;;1.62;74.34
62928;BME280;51070;52.236;-0.892;2023-02-10T02:18:27;102768.86;;;1.58;74.20
62928;BME280;51070;52.236;-0.892;2023-02-10T02:30:21;102753.05;;;1.42;74.09
62928;BME280;51070;52.236;-0.892;2023-02-10T02:33:01;102752.13;;;1.36;74.50
62928;BME280;51070;52.236;-0.892;2023-02-10T02:35:40;102754.52;;;1.32;74.61
62928;BME280;51070;52.236;-0.892;2023-02-10T02:38:09;102754.67;;;1.30;74.68
62928;BME280;51070;52.236;-0.892;2023-02-10T02:40:34;102746.14;;;1.29;75.04
62928;BME280;51070;52.236;-0.892;2023-02-10T02:43:00;102744.48;;;1.28;75.06
62928;BME280;51070;52.236;-0.892;2023-02-10T02:55:36;102719.46;;;1.30;75.94
62928;BME280;51070;52.236;-0.892;2023-02-10T02:58:14;102717.77;;;1.28;76.04
62928;BME280;51070;52.236;-0.892;2023-02-10T03:00:42;102714.20;;;1.27;76.13
62928;BME280;51070;52.236;-0.892;2023-02-10T03:03:09;102713.89;;;1.25;76.31
62928;BME280;51070;52.236;-0.892;2023-02-10T03:05:35;102711.67;;;1.23;76.28
62928;BME280;51070;52.236;-0.892;2023-02-10T03:08:00;102711.49;;;1.22;76.26
62928;BME280;51070;52.236;-0.892;2023-02-10T03:10:26;102707.56;;;1.20;76.37
62928;BME280;51070;52.236;-0.892;2023-02-10T03:12:52;102712.89;;;1.19;76.37
62928;BME280;51070;52.236;-0.892;2023-02-10T03:15:17;102712.63;;;1.18;76.55
62928;BME280;51070;52.236;-0.892;2023-02-10T03:17:43;102708.67;;;1.16;76.58
62928;BME280;51070;52.236;-0.892;2023-02-10T03:20:09;102713.14;;;1.14;76.72
62928;BME280;51070;52.236;-0.892;2023-02-10T03:22:34;102712.73;;;1.14;76.78
62928;BME280;51070;52.236;-0.892;2023-02-10T03:25:00;102718.63;;;1.13;76.84
62928;BME280;51070;52.236;-0.892;2023-02-10T03:27:26;102723.18;;;1.14;77.24
62928;BME280;51070;52.236;-0.892;2023-02-10T03:29:51;102716.13;;;1.16;77.36
62928;BME280;51070;52.236;-0.892;2023-02-10T03:32:18;102705.98;;;1.18;77.69
62928;BME280;51070;52.236;-0.892;2023-02-10T03:34:44;102704.84;;;1.18;77.85
62928;BME280;51070;52.236;-0.892;2023-02-10T03:37:10;102695.52;;;1.20;77.79
62928;BME280;51070;52.236;-0.892;2023-02-10T03:39:35;102696.65;;;1.23;77.89
62928;BME280;51070;52.236;-0.892;2023-02-10T03:42:01;102696.96;;;1.25;77.98
62928;BME280;51070;52.236;-0.892;2023-02-10T03:44:26;102689.96;;;1.24;77.86
62928;BME280;51070;52.236;-0.892;2023-02-10T03:46:52;102679.44;;;1.25;78.06
62928;BME280;51070;52.236;-0.892;2023-02-10T03:49:17;102685.94;;;1.25;77.93
62928;BME280;51070;52.236;-0.892;2023-02-10T03:51:43;102679.02;;;1.26;78.01
62928;BME280;51070;52.236;-0.892;2023-02-10T03:54:08;102676.15;;;1.26;77.73
62928;BME280;51070;52.236;-0.892;2023-02-10T03:56:34;102686.08;;;1.26;77.74
62928;BME280;51070;52.236;-0.892;2023-02-10T03:59:03;102688.13;;;1.25;78.05
62928;BME280;51070;52.236;-0.892;2023-02-10T04:01:29;102684.60;;;1.24;78.20
62928;BME280;51070;52.236;-0.892;2023-02-10T04:03:54;102669.98;;;1.22;78.06
62928;BME280;51070;52.236;-0.892;2023-02-10T04:06:20;102681.91;;;1.20;78.11
62928;BME280;51070;52.236;-0.892;2023-02-10T04:08:47;102676.74;;;1.18;78.24
62928;BME280;51070;52.236;-0.892;2023-02-10T04:11:13;102671.84;;;1.17;78.50
62928;BME280;51070;52.236;-0.892;2023-02-10T04:13:39;102667.36;;;1.16;78.54
62928;BME280;51070;52.236;-0.892;2023-02-10T04:16:07;102670.16;;;1.17;78.99
62928;BME280;51070;52.236;-0.892;2023-02-10T04:18:33;102668.67;;;1.19;79.08
62928;BME280;51070;52.236;-0.892;2023-02-10T04:21:01;102675.77;;;1.22;79.06
62928;BME280;51070;52.236;-0.892;2023-02-10T04:23:27;102673.16;;;1.25;79.32
62928;BME280;51070;52.236;-0.892;2023-02-10T04:25:53;102675.59;;;1.29;79.39
62928;BME280;51070;52.236;-0.892;2023-02-10T04:28:18;102678.10;;;1.31;79.23
62928;BME280;51070;52.236;-0.892;2023-02-10T04:30:44;102679.05;;;1.33;79.12
62928;BME280;51070;52.236;-0.892;2023-02-10T04:33:09;102682.27;;;1.34;79.37
62928;BME280;51070;52.236;-0.892;2023-02-10T04:35:35;102683.41;;;1.34;78.98
62928;BME280;51070;52.236;-0.892;2023-02-10T04:38:00;102688.77;;;1.33;79.06
62928;BME280;51070;52.236;-0.892;2023-02-10T04:40:29;102692.72;;;1.32;79.15
62928;BME280;51070;52.236;-0.892;2023-02-10T04:42:55;102690.40;;;1.31;78.92
62928;BME280;51070;52.236;-0.892;2023-02-10T04:45:20;102685.92;;;1.27;78.87
62928;BME280;51070;52.236;-0.892;2023-02-10T04:47:46;102682.31;;;1.23;78.95
62928;BME280;51070;52.236;-0.892;2023-02-10T04:50:11;102689.44;;;1.19;78.98
62928;BME280;51070;52.236;-0.892;2023-02-10T04:52:37;102694.69;;;1.17;79.18
62928;BME280;51070;52.236;-0.892;2023-02-10T04:55:02;102695.27;;;1.15;78.96
62928;BME280;51070;52.236;-0.892;2023-02-10T04:57:28;102694.55;;;1.11;79.02
62928;BME280;51070;52.236;-0.892;2023-02-10T04:59:53;102694.59;;;1.08;79.45
62928;BME280;51070;52.236;-0.892;2023-02-10T05:02:19;102695.08;;;1.06;79.38
62928;BME280;51070;52.236;-0.892;2023-02-10T05:04:44;102690.89;;;1.05;79.47
62928;BME280;51070;52.236;-0.892;2023-02-10T05:07:10;102686.33;;;1.05;80.00
62928;BME280;51070;52.236;-0.892;2023-02-10T05:09:36;102690.24;;;1.07;80.07
62928;BME280;51070;52.236;-0.892;2023-02-10T05:12:01;102691.67;;;1.09;80.28
62928;BME280;51070;52.236;-0.892;2023-02-10T05:14:26;102690.34;;;1.11;79.91
62928;BME280;51070;52.236;-0.892;2023-02-10T05:16:52;102684.75;;;1.13;79.89
62928;BME280;51070;52.236;-0.892;2023-02-10T05:19:17;102687.39;;;1.14;79.87
62928;BME280;51070;52.236;-0.892;2023-02-10T05:21:42;102686.69;;;1.14;79.95
62928;BME280;51070;52.236;-0.892;2023-02-10T05:24:08;102678.98;;;1.15;80.12
62928;BME280;51070;52.236;-0.892;2023-02-10T05:26:33;102676.36;;;1.13;80.06
62928;BME280;51070;52.236;-0.892;2023-02-10T05:28:58;102678.48;;;1.05;80.30
62928;BME280;51070;52.236;-0.892;2023-02-10T05:31:24;102677.20;;;0.99;80.12
62928;BME280;51070;52.236;-0.892;2023-02-10T05:33:49;102674.59;;;0.92;80.45
62928;BME280;51070;52.236;-0.892;2023-02-10T05:36:15;102673.98;;;0.81;80.52
62928;BME280;51070;52.236;-0.892;2023-02-10T05:38:40;102673.70;;;0.73;80.64
62928;BME280;51070;52.236;-0.892;2023-02-10T05:41:25;102672.39;;;0.71;81.03
62928;BME280;51070;52.236;-0.892;2023-02-10T05:43:51;102678.11;;;0.73;81.34
62928;BME280;51070;52.236;-0.892;2023-02-10T05:46:16;102684.82;;;0.77;81.52
62928;BME280;51070;52.236;-0.892;2023-02-10T05:48:41;102681.17;;;0.81;81.65
62928;BME280;51070;52.236;-0.892;2023-02-10T05:51:07;102678.66;;;0.87;81.73
62928;BME280;51070;52.236;-0.892;2023-02-10T05:53:32;102675.41;;;0.94;81.80
62928;BME280;51070;52.236;-0.892;2023-02-10T05:55:58;102678.31;;;0.99;81.95
62928;BME280;51070;52.236;-0.892;2023-02-10T05:58:23;102687.24;;;1.03;82.14
62928;BME280;51070;52.236;-0.892;2023-02-10T06:00:48;102692.83;;;1.06;81.59
62928;BME280;51070;52.236;-0.892;2023-02-10T06:03:14;102691.77;;;1.07;81.89
62928;BME280;51070;52.236;-0.892;2023-02-10T06:05:39;102692.16;;;1.08;81.66
62928;BME280;51070;52.236;-0.892;2023-02-10T06:08:05;102696.59;;;1.07;81.60
62928;BME280;51070;52.236;-0.892;2023-02-10T06:10:30;102701.78;;;1.07;81.45
62928;BME280;51070;52.236;-0.892;2023-02-10T06:12:55;102705.93;;;1.02;81.07
62928;BME280;51070;52.236;-0.892;2023-02-10T06:15:21;102703.41;;;0.93;81.02
62928;BME280;51070;52.236;-0.892;2023-02-10T06:17:46;102699.80;;;0.80;80.94
62928;BME280;51070;52.236;-0.892;2023-02-10T06:20:12;102699.33;;;0.70;80.92
62928;BME280;51070;52.236;-0.892;2023-02-10T06:22:37;102700.26;;;0.59;81.34
62928;BME280;51070;52.236;-0.892;2023-02-10T06:25:03;102703.93;;;0.53;81.47
62928;BME280;51070;52.236;-0.892;2023-02-10T06:27:28;102699.52;;;0.49;81.66
62928;BME280;51070;52.236;-0.892;2023-02-10T06:29:54;102703.22;;;0.43;81.67
62928;BME280;51070;52.236;-0.892;2023-02-10T06:32:19;102706.98;;;0.40;81.93
62928;BME280;51070;52.236;-0.892;2023-02-10T06:34:45;102699.67;;;0.42;82.24
62928;BME280;51070;52.236;-0.892;2023-02-10T06:37:11;102697.97;;;0.45;82.13
62928;BME280;51070;52.236;-0.892;2023-02-10T06:39:36;102700.55;;;0.49;82.51
62928;BME280;51070;52.236;-0.892;2023-02-10T06:42:02;102701.23;;;0.53;82.56
62928;BME280;51070;52.236;-0.892;2023-02-10T06:44:27;102700.02;;;0.58;82.67
62928;BME280;51070;52.236;-0.892;2023-02-10T06:46:52;102703.83;;;0.64;82.35
62928;BME280;51070;52.236;-0.892;2023-02-10T06:49:18;102698.95;;;0.68;82.34
62928;BME280;51070;52.236;-0.892;2023-02-10T06:51:43;102695.46;;;0.70;82.60
62928;BME280;51070;52.236;-0.892;2023-02-10T06:54:09;102690.73;;;0.70;82.64
62928;BME280;51070;52.236;-0.892;2023-02-10T06:56:34;102686.31;;;0.67;82.82
62928;BME280;51070;52.236;-0.892;2023-02-10T06:59:00;102683.65;;;0.63;82.84
62928;BME280;51070;52.236;-0.892;2023-02-10T07:01:25;102682.55;;;0.59;82.74
62928;BME280;51070;52.236;-0.892;2023-02-10T07:03:50;102682.45;;;0.56;83.04
62928;BME280;51070;52.236;-0.892;2023-02-10T07:06:16;102682.43;;;0.54;82.99
62928;BME280;51070;52.236;-0.892;2023-02-10T07:08:44;102684.14;;;0.55;82.96
62928;BME280;51070;52.236;-0.892;2023-02-10T07:11:09;102677.55;;;0.55;82.68
62928;BME280;51070;52.236;-0.892;2023-02-10T07:13:35;102682.56;;;0.49;82.55
62928;BME280;51070;52.236;-0.892;2023-02-10T07:16:00;102692.82;;;0.46;82.52
62928;BME280;51070;52.236;-0.892;2023-02-10T07:18:26;102691.12;;;0.45;82.63
62928;BME280;51070;52.236;-0.892;2023-02-10T07:20:53;102695.34;;;0.46;83.06
62928;BME280;51070;52.236;-0.892;2023-02-10T07:23:18;102700.50;;;0.50;83.20
62928;BME280;51070;52.236;-0.892;2023-02-10T07:25:43;102705.64;;;0.54;83.07
62928;BME280;51070;52.236;-0.892;2023-02-10T07:28:09;102706.79;;;0.56;82.85
62928;BME280;51070;52.236;-0.892;2023-02-10T07:30:35;102701.42;;;0.57;82.82
62928;BME280;51070;52.236;-0.892;2023-02-10T07:33:00;102700.48;;;0.59;82.93
62928;BME280;51070;52.236;-0.892;2023-02-10T07:35:28;102694.25;;;0.60;83.05
62928;BME280;51070;52.236;-0.892;2023-02-10T07:37:53;102690.66;;;0.60;83.17
62928;BME280;51070;52.236;-0.892;2023-02-10T07:40:19;102693.22;;;0.58;83.46
62928;BME280;51070;52.236;-0.892;2023-02-10T07:42:44;102701.67;;;0.58;83.57
62928;BME280;51070;52.236;-0.892;2023-02-10T07:45:10;102708.67;;;0.58;83.72
62928;BME280;51070;52.236;-0.892;2023-02-10T07:47:35;102716.11;;;0.58;83.71
62928;BME280;51070;52.236;-0.892;2023-02-10T07:50:02;102723.98;;;0.58;83.41
62928;BME280;51070;52.236;-0.892;2023-02-10T07:52:27;102720.63;;;0.58;83.48
62928;BME280;51070;52.236;-0.892;2023-02-10T07:54:52;102724.60;;;0.59;83.84
62928;BME280;51070;52.236;-0.892;2023-02-10T07:57:18;102720.77;;;0.60;83.73
62928;BME280;51070;52.236;-0.892;2023-02-10T07:59:44;102719.86;;;0.63;84.04
62928;BME280;51070;52.236;-0.892;2023-02-10T08:02:12;102723.81;;;0.66;84.21
62928;BME280;51070;52.236;-0.892;2023-02-10T08:04:38;102724.16;;;0.69;84.18
62928;BME280;51070;52.236;-0.892;2023-02-10T08:07:03;102725.23;;;0.73;83.92
62928;BME280;51070;52.236;-0.892;2023-02-10T08:09:29;102728.85;;;0.77;83.81
62928;BME280;51070;52.236;-0.892;2023-02-10T08:11:54;102726.71;;;0.81;83.76
62928;BME280;51070;52.236;-0.892;2023-02-10T08:14:19;102730.55;;;0.83;83.75
62928;BME280;51070;52.236;-0.892;2023-02-10T08:16:45;102739.14;;;0.86;83.46
62928;BME280;51070;52.236;-0.892;2023-02-10T08:19:10;102739.23;;;0.89;83.70
62928;BME280;51070;52.236;-0.892;2023-02-10T08:21:36;102732.55;;;0.90;83.44
62928;BME280;51070;52.236;-0.892;2023-02-10T08:24:01;102733.45;;;0.94;83.39
62928;BME280;51070;52.236;-0.892;2023-02-10T08:26:26;102728.79;;;0.96;83.40
62928;BME280;51070;52.236;-0.892;2023-02-10T08:28:52;102721.52;;;0.98;83.15
62928;BME280;51070;52.236;-0.892;2023-02-10T08:31:20;102710.88;;;0.99;82.95
62928;BME280;51070;52.236;-0.892;2023-02-10T08:33:46;102701.87;;;0.99;82.81
62928;BME280;51070;52.236;-0.892;2023-02-10T08:36:14;102698.85;;;0.98;83.18
62928;BME280;51070;52.236;-0.892;2023-02-10T08:38:41;102699.18;;;0.98;83.24
62928;BME280;51070;52.236;-0.892;2023-02-10T08:41:06;102696.84;;;0.99;83.48
62928;BME280;51070;52.236;-0.892;2023-02-10T08:43:32;102694.24;;;0.99;83.50
62928;BME280;51070;52.236;-0.892;2023-02-10T08:45:59;102693.89;;;1.03;83.89
62928;BME280;51070;52.236;-0.892;2023-02-10T08:48:26;102696.95;;;1.11;83.75
62928;BME280;51070;52.236;-0.892;2023-02-10T08:50:52;102704.70;;;1.20;83.33
62928;BME280;51070;52.236;-0.892;2023-02-10T08:53:18;102713.38;;;1.32;83.23
62928;BME280;51070;52.236;-0.892;2023-02-10T08:55:44;102714.60;;;1.44;83.44
62928;BME280;51070;52.236;-0.892;2023-02-10T08:58:09;102711.64;;;1.57;83.14
62928;BME280;51070;52.236;-0.892;2023-02-10T09:00:35;102718.92;;;1.70;83.45
62928;BME280;51070;52.236;-0.892;2023-02-10T09:03:00;102730.34;;;1.82;82.87
62928;BME280;51070;52.236;-0.892;2023-02-10T09:05:26;102736.80;;;1.93;82.26
62928;BME280;51070;52.236;-0.892;2023-02-10T09:07:52;102729.52;;;2.03;82.28
62928;BME280;51070;52.236;-0.892;2023-02-10T09:10:18;102730.08;;;2.15;82.01
62928;BME280;51070;52.236;-0.892;2023-02-10T09:12:44;102731.15;;;2.27;81.60
62928;BME280;51070;52.236;-0.892;2023-02-10T09:15:10;102728.96;;;2.36;81.20
62928;BME280;51070;52.236;-0.892;2023-02-10T09:17:35;102735.77;;;2.48;81.04
62928;BME280;51070;52.236;-0.892;2023-02-10T09:20:01;102731.45;;;2.62;80.70
62928;BME280;51070;52.236;-0.892;2023-02-10T09:22:26;102736.89;;;2.76;80.45
62928;BME280;51070;52.236;-0.892;2023-02-10T09:24:52;102746.60;;;2.93;79.95
62928;BME280;51070;52.236;-0.892;2023-02-10T09:27:18;102747.58;;;3.11;79.77
62928;BME280;51070;52.236;-0.892;2023-02-10T09:29:44;102751.44;;;3.26;79.46
62928;BME280;51070;52.236;-0.892;2023-02-10T09:32:10;102757.42;;;3.37;78.70
62928;BME280;51070;52.236;-0.892;2023-02-10T09:34:36;102758.49;;;3.44;78.39
62928;BME280;51070;52.236;-0.892;2023-02-10T09:37:03;102755.64;;;3.46;78.14
62928;BME280;51070;52.236;-0.892;2023-02-10T09:39:29;102750.37;;;3.50;77.91
62928;BME280;51070;52.236;-0.892;2023-02-10T09:42:03;102746.90;;;3.55;78.04
62928;BME280;51070;52.236;-0.892;2023-02-10T09:44:34;102743.51;;;3.61;77.53
62928;BME280;51070;52.236;-0.892;2023-02-10T09:52:56;102734.79;;;4.05;77.05
62928;BME280;51070;52.236;-0.892;2023-02-10T09:55:45;102737.23;;;4.23;76.56
62928;BME280;51070;52.236;-0.892;2023-02-10T09:58:26;102735.77;;;4.39;76.39
62928;BME280;51070;52.236;-0.892;2023-02-10T10:00:59;102732.09;;;4.57;76.11
62928;BME280;51070;52.236;-0.892;2023-02-10T10:03:34;102733.69;;;4.78;76.07
62928;BME280;51070;52.236;-0.892;2023-02-10T10:06:12;102738.16;;;4.94;75.05
62928;BME280;51070;52.236;-0.892;2023-02-10T10:11:46;102740.98;;;5.16;74.55
62928;BME280;51070;52.236;-0.892;2023-02-10T10:14:28;102721.88;;;5.27;74.37
62928;BME280;51070;52.236;-0.892;2023-02-10T10:31:15;102703.95;;;5.89;72.94
62928;BME280;51070;52.236;-0.892;2023-02-10T10:36:36;102709.30;;;6.40;72.30
62928;BME280;51070;52.236;-0.892;2023-02-10T10:39:32;102713.11;;;6.46;71.67
62928;BME280;51070;52.236;-0.892;2023-02-10T10:42:19;102710.10;;;6.45;71.21
62928;BME280;51070;52.236;-0.892;2023-02-10T10:44:49;102706.86;;;6.50;71.15
62928;BME280;51070;52.236;-0.892;2023-02-10T10:47:20;102707.71;;;6.54;71.35
62928;BME280;51070;52.236;-0.892;2023-02-10T10:49:51;102703.70;;;6.53;70.39
62928;BME280;51070;52.236;-0.892;2023-02-10T10:52:26;102702.20;;;6.48;70.60
62928;BME280;51070;52.236;-0.892;2023-02-10T10:54:57;102703.16;;;6.45;70.88
62928;BME280;51070;52.236;-0.892;2023-02-10T10:57:24;102710.73;;;6.47;70.76
62928;BME280;51070;52.236;-0.892;2023-02-10T10:59:54;102709.83;;;6.49;70.91
62928;BME280;51070;52.236;-0.892;2023-02-10T11:02:23;102701.36;;;6.54;71.21
62928;BME280;51070;52.236;-0.892;2023-02-10T11:05:12;102694.57;;;6.64;71.13
62928;BME280;51070;52.236;-0.892;2023-02-10T11:07:39;102687.21;;;6.71;70.79
62928;BME280;51070;52.236;-0.892;2023-02-10T11:10:06;102692.19;;;6.73;70.65
62928;BME280;51070;52.236;-0.892;2023-02-10T11:12:37;102690.31;;;6.68;70.12
62928;BME280;51070;52.236;-0.892;2023-02-10T11:17:49;102689.05;;;6.57;71.03
62928;BME280;51070;52.236;-0.892;2023-02-10T11:22:42;102681.69;;;6.49;71.10
62928;BME280;51070;52.236;-0.892;2023-02-10T11:25:25;102683.23;;;6.40;71.32
62928;BME280;51070;52.236;-0.892;2023-02-10T11:27:52;102688.79;;;6.34;71.50
62928;BME280;51070;52.236;-0.892;2023-02-10T11:30:25;102690.77;;;6.33;71.84
62928;BME280;51070;52.236;-0.892;2023-02-10T11:32:51;102690.46;;;6.36;71.95
62928;BME280;51070;52.236;-0.892;2023-02-10T11:35:17;102686.40;;;6.39;71.72
62928;BME280;51070;52.236;-0.892;2023-02-10T11:37:43;102679.83;;;6.41;71.76
62928;BME280;51070;52.236;-0.892;2023-02-10T11:40:24;102673.59;;;6.40;71.56
62928;BME280;51070;52.236;-0.892;2023-02-10T11:42:52;102666.59;;;6.36;71.79
62928;BME280;51070;52.236;-0.892;2023-02-10T11:45:20;102666.41;;;6.27;71.71
62928;BME280;51070;52.236;-0.892;2023-02-10T11:47:46;102666.30;;;6.24;72.03
62928;BME280;51070;52.236;-0.892;2023-02-10T11:50:20;102663.96;;;6.22;72.25
62928;BME280;51070;52.236;-0.892;2023-02-10T11:52:46;102663.48;;;6.21;72.40
62928;BME280;51070;52.236;-0.892;2023-02-10T11:55:14;102658.77;;;6.22;72.67
62928;BME280;51070;52.236;-0.892;2023-02-10T11:58:02;102656.39;;;6.27;72.82
62928;BME280;51070;52.236;-0.892;2023-02-10T12:00:59;102657.92;;;6.42;72.94
62928;BME280;51070;52.236;-0.892;2023-02-10T12:03:49;102658.61;;;6.52;72.67
62928;BME280;51070;52.236;-0.892;2023-02-10T12:06:38;102652.83;;;6.62;72.44
62928;BME280;51070;52.236;-0.892;2023-02-10T12:17:18;102634.58;;;7.14;71.80
62928;BME280;51070;52.236;-0.892;2023-02-10T12:22:57;102642.44;;;7.27;70.93
62928;BME280;51070;52.236;-0.892;2023-02-10T12:25:32;102643.31;;;7.27;70.89
62928;BME280;51070;52.236;-0.892;2023-02-10T12:33:38;102644.95;;;7.42;70.95
62928;BME280;51070;52.236;-0.892;2023-02-10T12:36:30;102644.80;;;7.47;71.06
62928;BME280;51070;52.236;-0.892;2023-02-10T12:52:32;102648.63;;;7.84;70.97
62928;BME280;51070;52.236;-0.892;2023-02-10T12:55:05;102652.63;;;7.96;70.96
62928;BME280;51070;52.236;-0.892;2023-02-10T12:57:42;102653.69;;;8.09;70.40
62928;BME280;51070;52.236;-0.892;2023-02-10T13:00:25;102648.63;;;8.15;70.54
62928;BME280;51070;52.236;-0.892;2023-02-10T13:03:05;102645.14;;;8.24;70.09
62928;BME280;51070;52.236;-0.892;2023-02-10T13:05:37;102640.64;;;8.35;70.03
62928;BME280;51070;52.236;-0.892;2023-02-10T13:08:04;102634.30;;;8.55;69.35
62928;BME280;51070;52.236;-0.892;2023-02-10T13:10:38;102635.69;;;8.72;68.85
62928;BME280;51070;52.236;-0.892;2023-02-10T13:13:25;102623.55;;;8.86;68.95
62928;BME280;51070;52.236;-0.892;2023-02-10T13:15:54;102615.27;;;8.98;68.42
62928;BME280;51070;52.236;-0.892;2023-02-10T13:18:30;102612.63;;;9.08;68.33
62928;BME280;51070;52.236;-0.892;2023-02-10T13:21:15;102613.98;;;9.17;68.23
62928;BME280;51070;52.236;-0.892;2023-02-10T13:23:48;102608.06;;;9.24;67.73
62928;BME280;51070;52.236;-0.892;2023-02-10T13:34:28;102594.83;;;9.38;67.81
62928;BME280;51070;52.236;-0.892;2023-02-10T13:37:58;102594.45;;;9.37;67.62
62928;BME280;51070;52.236;-0.892;2023-02-10T13:40:17;102595.09;;;9.34;67.96
62928;BME280;51070;52.236;-0.892;2023-02-10T13:42:56;102595.76;;;9.31;68.42
62928;BME280;51070;52.236;-0.892;2023-02-10T13:45:31;102599.41;;;9.31;69.08
62928;BME280;51070;52.236;-0.892;2023-02-10T13:47:57;102595.14;;;9.32;69.55
62928;BME280;51070;52.236;-0.892;2023-02-10T13:50:51;102590.98;;;9.37;69.78
62928;BME280;51070;52.236;-0.892;2023-02-10T13:59:02;102587.41;;;9.61;69.83
62928;BME280;51070;52.236;-0.892;2023-02-10T14:01:48;102582.92;;;9.72;69.98
62928;BME280;51070;52.236;-0.892;2023-02-10T14:06:43;102574.02;;;9.94;69.48
62928;BME280;51070;52.236;-0.892;2023-02-10T14:11:45;102580.50;;;10.03;69.44
62928;BME280;51070;52.236;-0.892;2023-02-10T14:16:48;102580.09;;;9.94;69.38
62928;BME280;51070;52.236;-0.892;2023-02-10T14:19:34;102578.58;;;9.87;69.62
62928;BME280;51070;52.236;-0.892;2023-02-10T14:22:00;102575.95;;;9.76;69.75
62928;BME280;51070;52.236;-0.892;2023-02-10T14:24:29;102572.41;;;9.66;70.17
62928;BME280;51070;52.236;-0.892;2023-02-10T14:27:01;102571.23;;;9.59;70.34
62928;BME280;51070;52.236;-0.892;2023-02-10T14:29:29;102568.11;;;9.53;70.54
62928;BME280;51070;52.236;-0.892;2023-02-10T14:31:58;102564.91;;;9.49;70.60
62928;BME280;51070;52.236;-0.892;2023-02-10T14:34:30;102561.58;;;9.43;70.19
62928;BME280;51070;52.236;-0.892;2023-02-10T14:36:59;102562.19;;;9.37;70.16
62928;BME280;51070;52.236;-0.892;2023-02-10T14:39:25;102558.90;;;9.34;70.16
62928;BME280;51070;52.236;-0.892;2023-02-10T14:41:54;102557.06;;;9.30;70.00
62928;BME280;51070;52.236;-0.892;2023-02-10T14:46:58;102555.13;;;9.21;70.02